createdAt,value
2022-08-26T00:00:04.553Z,985.41
2022-08-26T00:01:04.560Z,985.45
2022-08-26T00:02:04.598Z,985.43
2022-08-26T00:03:04.572Z,985.42
2022-08-26T00:04:04.633Z,985.38
2022-08-26T00:05:04.508Z,985.46
2022-08-26T00:06:04.490Z,985.41
2022-08-26T00:07:05.344Z,985.43
2022-08-26T00:08:04.478Z,985.48
2022-08-26T00:09:04.492Z,985.51
2022-08-26T00:10:04.466Z,985.50
2022-08-26T00:11:04.411Z,985.50
2022-08-26T00:12:04.465Z,985.50
2022-08-26T00:13:04.500Z,985.58
2022-08-26T00:14:04.385Z,985.57
2022-08-26T00:15:04.747Z,985.59
2022-08-26T00:16:04.383Z,985.56
2022-08-26T00:17:04.396Z,985.63
2022-08-26T00:18:04.358Z,985.68
2022-08-26T00:19:05.349Z,985.63
2022-08-26T00:20:04.357Z,985.67
2022-08-26T00:21:06.092Z,985.72
2022-08-26T00:22:04.385Z,985.70
2022-08-26T00:23:04.345Z,985.74
2022-08-26T00:24:04.275Z,985.68
2022-08-26T00:25:04.305Z,985.73
2022-08-26T00:26:04.274Z,985.75
2022-08-26T00:27:04.237Z,985.80
2022-08-26T00:28:04.232Z,985.74
2022-08-26T00:29:04.273Z,985.75
2022-08-26T00:30:04.276Z,985.72
2022-08-26T00:31:04.221Z,985.75
2022-08-26T00:32:04.229Z,985.72
2022-08-26T00:33:04.232Z,985.72
2022-08-26T00:34:04.157Z,985.75
2022-08-26T00:35:04.185Z,985.73
2022-08-26T00:36:04.149Z,985.72
2022-08-26T00:37:04.140Z,985.72
2022-08-26T00:38:04.122Z,985.73
2022-08-26T00:39:04.111Z,985.69
2022-08-26T00:40:05.239Z,985.68
2022-08-26T00:41:04.160Z,985.71
2022-08-26T00:42:04.084Z,985.71
2022-08-26T00:43:07.021Z,985.75
2022-08-26T00:44:05.067Z,985.72
2022-08-26T00:45:04.076Z,985.75
2022-08-26T00:46:05.093Z,985.70
2022-08-26T00:47:04.079Z,985.67
2022-08-26T00:48:04.104Z,985.67
2022-08-26T00:49:04.010Z,985.68
2022-08-26T00:50:05.028Z,985.66
2022-08-26T00:51:04.023Z,985.67
2022-08-26T00:52:03.968Z,985.64
2022-08-26T00:53:04.094Z,985.69
2022-08-26T00:54:03.967Z,985.70
2022-08-26T00:55:03.991Z,985.73
2022-08-26T00:56:03.958Z,985.77
2022-08-26T00:57:04.008Z,985.80
2022-08-26T00:58:03.932Z,985.86
2022-08-26T00:59:04.223Z,985.86
2022-08-26T01:00:03.925Z,985.83
2022-08-26T01:01:04.078Z,985.83
2022-08-26T01:02:04.032Z,985.79
2022-08-26T01:03:05.257Z,985.77
2022-08-26T01:04:03.866Z,985.79
2022-08-26T01:05:03.964Z,985.79
2022-08-26T01:06:03.834Z,985.84
2022-08-26T01:07:03.818Z,985.89
2022-08-26T01:08:03.811Z,985.85
2022-08-26T01:09:03.966Z,985.86
2022-08-26T01:10:03.871Z,985.84
2022-08-26T01:11:03.764Z,985.84
2022-08-26T01:12:03.773Z,985.85
2022-08-26T01:13:03.786Z,985.76
2022-08-26T01:14:03.734Z,985.79
2022-08-26T01:15:03.796Z,985.85
2022-08-26T01:16:03.770Z,985.84
2022-08-26T01:17:05.088Z,985.81
2022-08-26T01:18:03.684Z,985.85
2022-08-26T01:19:03.702Z,985.80
2022-08-26T01:20:03.707Z,985.84
2022-08-26T01:21:03.639Z,985.80
2022-08-26T01:22:03.637Z,985.81
2022-08-26T01:23:03.768Z,985.82
2022-08-26T01:24:03.645Z,985.77
2022-08-26T01:25:03.875Z,985.81
2022-08-26T01:26:03.690Z,985.78
2022-08-26T01:27:03.589Z,985.84
2022-08-26T01:28:03.577Z,985.73
2022-08-26T01:29:03.570Z,985.73
2022-08-26T01:30:03.570Z,985.78
2022-08-26T01:31:03.541Z,985.77
2022-08-26T01:32:03.547Z,985.75
2022-08-26T01:33:03.708Z,985.72
2022-08-26T01:34:03.510Z,985.79
2022-08-26T01:35:03.534Z,985.69
2022-08-26T01:36:03.508Z,985.79
2022-08-26T01:37:03.478Z,985.75
2022-08-26T01:38:03.478Z,985.72
2022-08-26T01:39:03.468Z,985.77
2022-08-26T01:40:03.539Z,985.74
2022-08-26T01:41:03.435Z,985.81
2022-08-26T01:42:04.414Z,985.78
2022-08-26T01:43:04.508Z,985.83
2022-08-26T01:44:03.388Z,985.83
2022-08-26T01:45:03.399Z,985.91
2022-08-26T01:46:03.408Z,985.85
2022-08-26T01:47:03.385Z,985.92
2022-08-26T01:48:03.442Z,985.88
2022-08-26T01:49:03.345Z,985.84
2022-08-26T01:50:03.399Z,985.89
2022-08-26T01:51:03.318Z,985.88
2022-08-26T01:52:03.326Z,985.92
2022-08-26T01:53:03.281Z,985.91
2022-08-26T01:54:03.304Z,985.93
2022-08-26T01:55:03.325Z,985.90
2022-08-26T01:56:03.334Z,985.94
2022-08-26T01:57:03.285Z,985.96
2022-08-26T01:58:03.232Z,985.96
2022-08-26T01:59:03.314Z,985.96
2022-08-26T02:00:03.223Z,985.99
2022-08-26T02:01:03.261Z,986.03
2022-08-26T02:02:03.190Z,986.04
2022-08-26T02:03:03.183Z,986.05
2022-08-26T02:04:03.231Z,986.05
2022-08-26T02:05:03.259Z,986.07
2022-08-26T02:06:03.189Z,986.02
2022-08-26T02:07:03.168Z,986.00
2022-08-26T02:08:03.128Z,986.00
2022-08-26T02:09:03.119Z,986.04
2022-08-26T02:10:03.141Z,986.01
2022-08-26T02:11:03.119Z,986.01
2022-08-26T02:12:03.111Z,986.02
2022-08-26T02:13:03.073Z,985.98
2022-08-26T02:14:03.142Z,986.03
2022-08-26T02:15:03.095Z,986.05
2022-08-26T02:16:03.064Z,986.04
2022-08-26T02:17:03.029Z,986.02
2022-08-26T02:18:03.029Z,985.97
2022-08-26T02:19:03.021Z,986.00
2022-08-26T02:20:03.019Z,985.98
2022-08-26T02:21:03.005Z,985.96
2022-08-26T02:22:02.990Z,985.98
2022-08-26T02:23:02.994Z,986.00
2022-08-26T02:24:03.003Z,986.02
2022-08-26T02:25:02.972Z,986.02
2022-08-26T02:26:02.965Z,985.97
2022-08-26T02:27:02.949Z,985.92
2022-08-26T02:28:03.002Z,986.03
2022-08-26T02:29:02.941Z,986.01
2022-08-26T02:30:02.933Z,986.04
2022-08-26T02:31:02.959Z,985.99
2022-08-26T02:32:02.872Z,985.99
2022-08-26T02:33:02.877Z,986.04
2022-08-26T02:34:02.887Z,985.98
2022-08-26T02:35:02.870Z,985.98
2022-08-26T02:36:02.820Z,985.96
2022-08-26T02:37:02.837Z,985.95
2022-08-26T02:38:02.808Z,985.93
2022-08-26T02:39:03.829Z,985.94
2022-08-26T02:40:02.812Z,985.88
2022-08-26T02:41:02.767Z,985.93
2022-08-26T02:42:02.764Z,985.90
2022-08-26T02:43:02.788Z,985.87
2022-08-26T02:44:02.727Z,985.91
2022-08-26T02:45:02.801Z,985.90
2022-08-26T02:46:02.773Z,985.96
2022-08-26T02:47:02.826Z,985.94
2022-08-26T02:48:02.745Z,985.98
2022-08-26T02:49:02.726Z,985.92
2022-08-26T02:50:02.793Z,985.92
2022-08-26T02:51:02.694Z,986.00
2022-08-26T02:52:02.656Z,985.97
2022-08-26T02:53:02.646Z,985.97
2022-08-26T02:54:02.660Z,985.95
2022-08-26T02:55:02.671Z,985.95
2022-08-26T02:56:02.611Z,985.95
2022-08-26T02:57:02.645Z,985.98
2022-08-26T02:58:02.592Z,986.00
2022-08-26T02:59:02.592Z,985.99
2022-08-26T03:00:02.671Z,985.96
2022-08-26T03:01:02.713Z,985.98
2022-08-26T03:02:02.641Z,985.97
2022-08-26T03:03:02.561Z,985.87
2022-08-26T03:04:02.537Z,985.95
2022-08-26T03:05:02.586Z,985.92
2022-08-26T03:06:02.507Z,985.93
2022-08-26T03:07:02.530Z,985.93
2022-08-26T03:08:02.525Z,985.87
2022-08-26T03:09:02.504Z,985.90
2022-08-26T03:10:08.217Z,985.94
2022-08-26T03:11:03.446Z,985.94
2022-08-26T03:12:02.469Z,985.90
2022-08-26T03:13:05.169Z,985.90
2022-08-26T03:14:03.573Z,985.91
2022-08-26T03:15:02.466Z,985.91
2022-08-26T03:16:03.490Z,985.88
2022-08-26T03:17:02.449Z,985.89
2022-08-26T03:18:02.433Z,985.88
2022-08-26T03:19:02.383Z,985.95
2022-08-26T03:20:02.346Z,985.93
2022-08-26T03:21:02.342Z,985.89
2022-08-26T03:22:02.392Z,985.92
2022-08-26T03:23:02.353Z,985.90
2022-08-26T03:24:02.404Z,985.88
2022-08-26T03:25:02.303Z,985.90
2022-08-26T03:26:02.314Z,985.86
2022-08-26T03:27:05.941Z,985.89
2022-08-26T03:28:03.352Z,985.87
2022-08-26T03:29:02.258Z,985.81
2022-08-26T03:30:02.285Z,985.81
2022-08-26T03:31:02.274Z,985.87
2022-08-26T03:32:02.298Z,985.87
2022-08-26T03:33:02.315Z,985.85
2022-08-26T03:34:02.178Z,985.85
2022-08-26T03:35:02.221Z,985.87
2022-08-26T03:36:02.395Z,985.88
2022-08-26T03:37:02.235Z,985.88
2022-08-26T03:38:02.200Z,985.89
2022-08-26T03:39:02.169Z,985.85
2022-08-26T03:40:02.169Z,985.96
2022-08-26T03:41:02.177Z,985.88
2022-08-26T03:42:02.179Z,985.89
2022-08-26T03:43:02.203Z,985.86
2022-08-26T03:44:02.076Z,985.89
2022-08-26T03:45:02.060Z,985.90
2022-08-26T03:46:02.225Z,985.88
2022-08-26T03:47:02.055Z,985.85
2022-08-26T03:48:02.034Z,985.91
2022-08-26T03:49:02.037Z,985.96
2022-08-26T03:50:02.107Z,985.89
2022-08-26T03:51:02.026Z,985.88
2022-08-26T03:52:02.000Z,985.81
2022-08-26T03:53:02.035Z,985.87
2022-08-26T03:54:02.008Z,985.85
2022-08-26T03:55:02.013Z,985.86
2022-08-26T03:56:01.944Z,985.84
2022-08-26T03:57:01.946Z,985.79
2022-08-26T03:58:01.954Z,985.83
2022-08-26T03:59:02.030Z,985.82
2022-08-26T04:00:01.962Z,985.83
2022-08-26T04:01:01.956Z,985.80
2022-08-26T04:02:01.977Z,985.80
2022-08-26T04:03:01.985Z,985.88
2022-08-26T04:04:02.026Z,985.90
2022-08-26T04:05:01.880Z,985.86
2022-08-26T04:06:01.967Z,985.85
2022-08-26T04:07:01.851Z,985.88
2022-08-26T04:08:01.930Z,985.83
2022-08-26T04:09:01.836Z,985.82
2022-08-26T04:10:01.859Z,985.89
2022-08-26T04:11:01.866Z,985.81
2022-08-26T04:12:01.783Z,985.81
2022-08-26T04:13:01.823Z,985.81
2022-08-26T04:14:01.792Z,985.83
2022-08-26T04:15:01.824Z,985.81
2022-08-26T04:16:01.805Z,985.87
2022-08-26T04:17:01.759Z,985.86
2022-08-26T04:18:01.799Z,985.84
2022-08-26T04:19:01.713Z,985.85
2022-08-26T04:20:01.760Z,985.82
2022-08-26T04:21:01.735Z,985.89
2022-08-26T04:22:01.674Z,985.89
2022-08-26T04:23:01.718Z,985.86
2022-08-26T04:24:03.492Z,985.84
2022-08-26T04:25:01.664Z,985.82
2022-08-26T04:26:01.696Z,985.89
2022-08-26T04:27:01.605Z,985.87
2022-08-26T04:28:01.637Z,985.86
2022-08-26T04:29:01.707Z,985.88
2022-08-26T04:30:01.585Z,985.87
2022-08-26T04:31:01.683Z,985.94
2022-08-26T04:32:01.646Z,985.97
2022-08-26T04:33:01.648Z,985.93
2022-08-26T04:34:01.582Z,985.95
2022-08-26T04:35:01.888Z,985.96
2022-08-26T04:36:01.544Z,985.99
2022-08-26T04:37:01.544Z,985.92
2022-08-26T04:38:01.547Z,985.93
2022-08-26T04:39:01.481Z,986.01
2022-08-26T04:40:01.569Z,985.94
2022-08-26T04:41:01.518Z,985.95
2022-08-26T04:42:01.753Z,985.92
2022-08-26T04:43:01.484Z,985.94
2022-08-26T04:44:01.447Z,985.86
2022-08-26T04:45:01.412Z,985.91
2022-08-26T04:46:01.511Z,985.96
2022-08-26T04:47:01.415Z,985.97
2022-08-26T04:48:01.971Z,985.98
2022-08-26T04:49:01.372Z,985.98
2022-08-26T04:50:01.903Z,986.01
2022-08-26T04:51:01.394Z,985.98
2022-08-26T04:52:01.360Z,986.01
2022-08-26T04:53:01.378Z,985.98
2022-08-26T04:54:01.380Z,985.98
2022-08-26T04:55:01.329Z,986.02
2022-08-26T04:56:01.322Z,985.99
2022-08-26T04:57:01.375Z,985.99
2022-08-26T04:58:01.427Z,986.02
2022-08-26T04:59:01.283Z,985.97
2022-08-26T05:00:01.250Z,986.01
2022-08-26T05:01:01.285Z,985.97
2022-08-26T05:02:01.440Z,986.00
2022-08-26T05:03:01.325Z,986.00
2022-08-26T05:04:01.312Z,986.01
2022-08-26T05:05:01.245Z,986.05
2022-08-26T05:06:01.243Z,986.03
2022-08-26T05:07:02.910Z,986.06
2022-08-26T05:08:01.188Z,986.11
2022-08-26T05:09:01.163Z,986.11
2022-08-26T05:10:01.166Z,986.12
2022-08-26T05:11:01.128Z,986.11
2022-08-26T05:12:01.140Z,986.16
2022-08-26T05:13:01.251Z,986.16
2022-08-26T05:14:02.338Z,986.14
2022-08-26T05:15:01.687Z,986.17
2022-08-26T05:16:01.462Z,986.20
2022-08-26T05:17:01.099Z,986.21
2022-08-26T05:18:01.064Z,986.21
2022-08-26T05:19:01.061Z,986.15
2022-08-26T05:20:01.044Z,986.16
2022-08-26T05:21:01.049Z,986.15
2022-08-26T05:22:01.139Z,986.15
2022-08-26T05:23:01.027Z,986.09
2022-08-26T05:24:01.046Z,986.11
2022-08-26T05:25:01.059Z,986.10
2022-08-26T05:26:01.061Z,986.15
2022-08-26T05:27:01.038Z,986.11
2022-08-26T05:28:00.963Z,986.11
2022-08-26T05:29:00.983Z,986.16
2022-08-26T05:30:01.165Z,986.13
2022-08-26T05:31:01.059Z,986.17
2022-08-26T05:32:00.971Z,986.14
2022-08-26T05:33:01.011Z,986.13
2022-08-26T05:34:03.605Z,986.09
2022-08-26T05:35:00.898Z,986.14
2022-08-26T05:36:00.939Z,986.16
2022-08-26T05:37:00.853Z,986.11
2022-08-26T05:38:00.851Z,986.11
2022-08-26T05:39:00.859Z,986.13
2022-08-26T05:40:00.883Z,986.13
2022-08-26T05:41:00.893Z,986.12
2022-08-26T05:42:00.862Z,986.10
2022-08-26T05:43:00.801Z,986.07
2022-08-26T05:44:00.799Z,986.09
2022-08-26T05:45:00.851Z,986.11
2022-08-26T05:46:00.864Z,986.14
2022-08-26T05:47:01.753Z,986.10
2022-08-26T05:48:00.796Z,986.17
2022-08-26T05:49:00.720Z,986.12
2022-08-26T05:50:00.708Z,986.12
2022-08-26T05:51:00.731Z,986.19
2022-08-26T05:52:00.710Z,986.18
2022-08-26T05:53:00.739Z,986.17
2022-08-26T05:54:00.682Z,986.11
2022-08-26T05:55:00.658Z,986.13
2022-08-26T05:56:00.816Z,986.15
2022-08-26T05:57:00.779Z,986.16
2022-08-26T05:58:02.696Z,986.21
2022-08-26T05:59:00.642Z,986.20
2022-08-26T06:00:00.648Z,986.17
2022-08-26T06:01:00.670Z,986.15
2022-08-26T06:02:00.658Z,986.21
2022-08-26T06:03:00.649Z,986.21
2022-08-26T06:04:01.798Z,986.20
2022-08-26T06:05:00.553Z,986.26
2022-08-26T06:06:00.604Z,986.27
2022-08-26T06:07:00.569Z,986.23
2022-08-26T06:08:00.579Z,986.28
2022-08-26T06:09:00.555Z,986.29
2022-08-26T06:10:21.610Z,986.29
2022-08-26T06:11:01.552Z,986.34
2022-08-26T06:12:00.506Z,986.34
2022-08-26T06:13:06.166Z,986.30
2022-08-26T06:14:03.820Z,986.32
2022-08-26T06:15:00.456Z,986.31
2022-08-26T06:16:00.549Z,986.29
2022-08-26T06:17:00.595Z,986.30
2022-08-26T06:18:00.436Z,986.24
2022-08-26T06:19:00.440Z,986.29
2022-08-26T06:20:00.381Z,986.23
2022-08-26T06:21:00.398Z,986.27
2022-08-26T06:22:00.365Z,986.24
2022-08-26T06:23:00.406Z,986.23
2022-08-26T06:24:00.389Z,986.26
2022-08-26T06:25:00.389Z,986.25
2022-08-26T06:26:00.356Z,986.27
2022-08-26T06:27:00.340Z,986.30
2022-08-26T06:28:00.357Z,986.32
2022-08-26T06:29:00.309Z,986.29
2022-08-26T06:30:00.266Z,986.34
2022-08-26T06:31:00.333Z,986.37
2022-08-26T06:32:00.275Z,986.36
2022-08-26T06:33:00.255Z,986.34
2022-08-26T06:34:00.269Z,986.30
2022-08-26T06:35:00.223Z,986.40
2022-08-26T06:36:00.232Z,986.38
2022-08-26T06:37:01.307Z,986.38
2022-08-26T06:38:00.188Z,986.38
2022-08-26T06:39:00.194Z,986.37
2022-08-26T06:40:00.311Z,986.38
2022-08-26T06:41:00.193Z,986.40
2022-08-26T06:42:00.194Z,986.45
2022-08-26T06:43:00.122Z,986.42
2022-08-26T06:44:00.127Z,986.37
2022-08-26T06:45:00.146Z,986.37
2022-08-26T06:46:00.241Z,986.47
2022-08-26T06:47:00.154Z,986.48
2022-08-26T06:48:00.160Z,986.46
2022-08-26T06:49:00.067Z,986.44
2022-08-26T06:50:00.089Z,986.46
2022-08-26T06:51:00.113Z,986.40
2022-08-26T06:52:00.272Z,986.46
2022-08-26T06:53:00.075Z,986.41
2022-08-26T06:54:00.110Z,986.44
2022-08-26T06:55:00.005Z,986.46
2022-08-26T06:56:00.073Z,986.50
2022-08-26T06:57:00.032Z,986.45
2022-08-26T06:58:00.158Z,986.47
2022-08-26T06:59:00.035Z,986.46
2022-08-26T07:00:00.052Z,986.41
2022-08-26T07:01:03.758Z,986.45
2022-08-26T07:02:01.040Z,986.49
2022-08-26T07:02:59.999Z,986.50
2022-08-26T07:03:59.999Z,986.50
2022-08-26T07:05:00.088Z,986.43
2022-08-26T07:06:00.084Z,986.40
2022-08-26T07:06:59.948Z,986.42
2022-08-26T07:08:00.140Z,986.47
2022-08-26T07:08:59.926Z,986.51
2022-08-26T07:09:59.849Z,986.53
2022-08-26T07:10:59.881Z,986.52
2022-08-26T07:11:59.808Z,986.51
2022-08-26T07:12:59.809Z,986.53
2022-08-26T07:13:59.790Z,986.56
2022-08-26T07:14:59.872Z,986.57
2022-08-26T07:16:03.119Z,986.54
2022-08-26T07:16:59.757Z,986.59
2022-08-26T07:17:59.773Z,986.60
2022-08-26T07:18:59.793Z,986.61
2022-08-26T07:19:59.768Z,986.60
2022-08-26T07:20:59.762Z,986.66
2022-08-26T07:21:59.759Z,986.62
2022-08-26T07:22:59.683Z,986.64
2022-08-26T07:24:01.428Z,986.66
2022-08-26T07:24:59.722Z,986.64
2022-08-26T07:25:59.718Z,986.71
2022-08-26T07:26:59.645Z,986.62
2022-08-26T07:27:59.706Z,986.64
2022-08-26T07:28:59.673Z,986.63
2022-08-26T07:29:59.625Z,986.64
2022-08-26T07:30:59.734Z,986.66
2022-08-26T07:31:59.614Z,986.62
2022-08-26T07:32:59.586Z,986.66
2022-08-26T07:33:59.585Z,986.63
2022-08-26T07:34:59.574Z,986.61
2022-08-26T07:35:59.622Z,986.67
2022-08-26T07:36:59.577Z,986.61
2022-08-26T07:37:59.535Z,986.65
2022-08-26T07:38:59.590Z,986.63
2022-08-26T07:39:59.585Z,986.65
2022-08-26T07:40:59.583Z,986.64
2022-08-26T07:41:59.568Z,986.64
2022-08-26T07:42:59.467Z,986.68
2022-08-26T07:43:59.457Z,986.71
2022-08-26T07:44:59.496Z,986.68
2022-08-26T07:45:59.539Z,986.64
2022-08-26T07:46:59.441Z,986.66
2022-08-26T07:47:59.458Z,986.65
2022-08-26T07:48:59.483Z,986.66
2022-08-26T07:49:59.531Z,986.68
2022-08-26T07:50:59.434Z,986.69
2022-08-26T07:51:59.450Z,986.73
2022-08-26T07:52:59.373Z,986.68
2022-08-26T07:53:59.731Z,986.63
2022-08-26T07:54:59.905Z,986.63
2022-08-26T07:57:21.038Z,986.65
2022-08-26T07:58:16.847Z,986.66
2022-08-26T07:59:15.600Z,986.64
2022-08-26T08:00:15.742Z,986.60
2022-08-26T08:01:15.873Z,986.62
2022-08-26T08:02:15.742Z,986.61
2022-08-26T08:03:15.671Z,986.59
2022-08-26T08:04:15.536Z,986.54
2022-08-26T08:05:15.957Z,986.58
2022-08-26T08:06:15.630Z,986.57
2022-08-26T08:07:15.514Z,986.61
2022-08-26T08:08:27.164Z,986.58
2022-08-26T08:09:16.584Z,986.56
2022-08-26T08:10:15.477Z,986.58
2022-08-26T08:11:15.511Z,986.55
2022-08-26T08:12:15.458Z,986.59
2022-08-26T08:13:15.535Z,986.64
2022-08-26T08:14:15.438Z,986.60
2022-08-26T08:15:15.457Z,986.60
2022-08-26T08:16:15.430Z,986.65
2022-08-26T08:17:15.427Z,986.59
2022-08-26T08:18:16.006Z,986.65
2022-08-26T08:19:15.389Z,986.66
2022-08-26T08:20:15.386Z,986.68
2022-08-26T08:21:21.913Z,986.60
2022-08-26T08:22:17.246Z,986.67
2022-08-26T08:23:15.479Z,986.58
2022-08-26T08:24:15.391Z,986.65
2022-08-26T08:25:15.312Z,986.64
2022-08-26T08:26:15.331Z,986.67
2022-08-26T08:27:16.465Z,986.65
2022-08-26T08:28:15.276Z,986.68
2022-08-26T08:29:15.268Z,986.64
2022-08-26T08:30:15.266Z,986.67
2022-08-26T08:31:19.089Z,986.62
2022-08-26T08:32:16.301Z,986.60
2022-08-26T08:33:16.452Z,986.62
2022-08-26T08:34:15.253Z,986.60
2022-08-26T08:35:15.208Z,986.65
2022-08-26T08:36:20.361Z,986.67
2022-08-26T08:37:16.192Z,986.71
2022-08-26T08:38:15.236Z,986.77
2022-08-26T08:39:15.164Z,986.77
2022-08-26T08:40:15.243Z,986.77
2022-08-26T08:41:16.072Z,986.80
2022-08-26T08:42:15.189Z,986.69
2022-08-26T08:43:15.265Z,986.67
2022-08-26T08:44:15.189Z,986.71
2022-08-26T08:45:15.109Z,986.71
2022-08-26T08:46:15.246Z,986.71
2022-08-26T08:47:15.106Z,986.73
2022-08-26T08:48:15.145Z,986.73
2022-08-26T08:49:15.072Z,986.63
2022-08-26T08:50:15.393Z,986.68
2022-08-26T08:51:17.012Z,986.70
2022-08-26T08:52:15.051Z,986.69
2022-08-26T08:53:15.078Z,986.65
2022-08-26T08:54:15.000Z,986.70
2022-08-26T08:55:18.113Z,986.62
2022-08-26T08:56:15.045Z,986.60
2022-08-26T08:57:14.993Z,986.62
2022-08-26T08:58:14.974Z,986.53
2022-08-26T08:59:15.159Z,986.58
2022-08-26T09:00:15.028Z,986.65
2022-08-26T09:01:15.045Z,986.59
2022-08-26T09:02:14.995Z,986.65
2022-08-26T09:03:14.933Z,986.55
2022-08-26T09:04:17.372Z,986.61
2022-08-26T09:05:15.428Z,986.64
2022-08-26T09:06:15.285Z,986.68
2022-08-26T09:07:14.970Z,986.60
2022-08-26T09:08:14.874Z,986.65
2022-08-26T09:09:14.869Z,986.63
2022-08-26T09:10:14.891Z,986.67
2022-08-26T09:11:14.853Z,986.64
2022-08-26T09:12:14.833Z,986.61
2022-08-26T09:13:16.950Z,986.59
2022-08-26T09:14:14.838Z,986.63
2022-08-26T09:15:14.828Z,986.60
2022-08-26T09:16:14.789Z,986.59
2022-08-26T09:17:14.798Z,986.59
2022-08-26T09:18:17.909Z,986.62
2022-08-26T09:19:14.810Z,986.63
2022-08-26T09:20:14.767Z,986.56
2022-08-26T09:21:14.783Z,986.56
2022-08-26T09:22:14.741Z,986.55
2022-08-26T09:23:14.705Z,986.56
2022-08-26T09:24:14.695Z,986.53
2022-08-26T09:25:14.725Z,986.60
2022-08-26T09:26:14.909Z,986.54
2022-08-26T09:27:15.290Z,986.63
2022-08-26T09:28:14.688Z,986.54
2022-08-26T09:29:14.709Z,986.57
2022-08-26T09:30:14.679Z,986.61
2022-08-26T09:31:14.846Z,986.58
2022-08-26T09:32:14.623Z,986.62
2022-08-26T09:33:14.951Z,986.61
2022-08-26T09:34:17.294Z,986.55
2022-08-26T09:35:14.748Z,986.60
2022-08-26T09:36:14.616Z,986.63
2022-08-26T09:37:14.568Z,986.54
2022-08-26T09:38:14.708Z,986.56
2022-08-26T09:39:14.558Z,986.57
2022-08-26T09:40:14.652Z,986.65
2022-08-26T09:41:14.650Z,986.60
2022-08-26T09:42:16.804Z,986.57
2022-08-26T09:43:14.494Z,986.59
2022-08-26T09:45:29.513Z,986.60
2022-08-26T09:46:29.041Z,986.62
2022-08-26T09:47:24.375Z,986.58
2022-08-26T09:48:24.386Z,986.60
2022-08-26T09:49:24.466Z,986.62
2022-08-26T09:50:28.871Z,986.56
2022-08-26T09:51:25.323Z,986.54
2022-08-26T09:52:24.641Z,986.53
2022-08-26T09:53:28.595Z,986.53
2022-08-26T09:54:25.576Z,986.48
2022-08-26T09:55:37.793Z,986.52
2022-08-26T09:56:24.503Z,986.51
2022-08-26T09:57:24.379Z,986.48
2022-08-26T09:58:24.254Z,986.50
2022-08-26T09:59:24.241Z,986.53
2022-08-26T10:00:24.201Z,986.50
2022-08-26T10:01:24.264Z,986.44
2022-08-26T10:02:24.196Z,986.49
2022-08-26T10:03:24.376Z,986.43
2022-08-26T10:04:24.237Z,986.42
2022-08-26T10:05:24.134Z,986.39
2022-08-26T10:06:24.142Z,986.40
2022-08-26T10:07:24.148Z,986.41
2022-08-26T10:08:24.103Z,986.41
2022-08-26T10:09:24.094Z,986.38
2022-08-26T10:10:24.091Z,986.36
2022-08-26T10:11:24.083Z,986.38
2022-08-26T10:12:25.037Z,986.33
2022-08-26T10:13:39.760Z,986.39
2022-08-26T10:14:24.223Z,986.36
2022-08-26T10:15:24.095Z,986.37
2022-08-26T10:16:24.470Z,986.31
2022-08-26T10:17:24.035Z,986.31
2022-08-26T10:18:24.080Z,986.29
2022-08-26T10:19:23.984Z,986.31
2022-08-26T10:20:24.989Z,986.28
2022-08-26T10:21:24.080Z,986.27
2022-08-26T10:22:23.976Z,986.24
2022-08-26T10:23:23.936Z,986.28
2022-08-26T10:24:23.929Z,986.27
2022-08-26T10:25:23.972Z,986.25
2022-08-26T10:26:23.925Z,986.31
2022-08-26T10:27:23.948Z,986.24
2022-08-26T10:28:23.886Z,986.35
2022-08-26T10:29:26.507Z,986.32
2022-08-26T10:30:24.502Z,986.28
2022-08-26T10:31:27.708Z,986.28
2022-08-26T10:32:23.930Z,986.23
2022-08-26T10:33:23.848Z,986.25
2022-08-26T10:34:23.844Z,986.21
2022-08-26T10:35:23.833Z,986.23
2022-08-26T10:36:23.922Z,986.15
2022-08-26T10:37:23.863Z,986.15
2022-08-26T10:38:26.488Z,986.16
2022-08-26T10:39:23.839Z,986.16
2022-08-26T10:40:33.867Z,986.21
2022-08-26T10:41:25.126Z,986.21
2022-08-26T10:42:23.927Z,986.14
2022-08-26T10:43:23.769Z,986.15
2022-08-26T10:44:23.713Z,986.07
2022-08-26T10:45:23.720Z,986.13
2022-08-26T10:46:23.824Z,986.14
2022-08-26T10:47:26.793Z,986.13
2022-08-26T10:48:23.852Z,986.09
2022-08-26T10:49:23.679Z,986.07
2022-08-26T10:50:23.701Z,986.09
2022-08-26T10:51:23.707Z,986.11
2022-08-26T10:52:23.646Z,986.06
2022-08-26T10:53:25.236Z,986.02
2022-08-26T10:54:23.746Z,986.07
2022-08-26T10:55:23.609Z,986.07
2022-08-26T10:56:29.064Z,985.96
2022-08-26T10:57:23.783Z,985.96
2022-08-26T10:58:45.151Z,985.92
2022-08-26T10:59:24.274Z,985.96
2022-08-26T11:00:24.743Z,985.99
2022-08-26T11:01:23.890Z,985.94
2022-08-26T11:02:25.159Z,985.93
2022-08-26T11:03:23.552Z,985.87
2022-08-26T11:04:23.606Z,985.88
2022-08-26T11:05:30.077Z,985.90
2022-08-26T11:06:25.621Z,985.90
2022-08-26T11:07:34.723Z,985.82
2022-08-26T11:08:23.520Z,985.81
2022-08-26T11:09:25.796Z,985.79
2022-08-26T11:10:24.624Z,985.80
2022-08-26T11:11:23.485Z,985.84
2022-08-26T11:12:23.459Z,985.83
2022-08-26T11:13:23.495Z,985.78
2022-08-26T11:14:31.372Z,985.83
2022-08-26T11:15:25.850Z,985.86
2022-08-26T11:16:46.132Z,985.82
2022-08-26T11:17:23.708Z,985.83
2022-08-26T11:18:23.531Z,985.80
2022-08-26T11:19:24.598Z,985.86
2022-08-26T11:20:23.785Z,985.77
2022-08-26T11:21:24.576Z,985.81
2022-08-26T11:22:24.398Z,985.84
2022-08-26T11:24:37.658Z,985.83
2022-08-26T11:25:27.733Z,985.79
2022-08-26T11:26:36.133Z,985.84
2022-08-26T11:27:24.486Z,985.82
2022-08-26T11:28:23.336Z,985.86
2022-08-26T11:29:23.290Z,985.80
2022-08-26T11:30:24.140Z,985.83
2022-08-26T11:31:23.323Z,985.82
2022-08-26T11:32:23.526Z,985.85
2022-08-26T11:34:39.963Z,985.82
2022-08-26T11:35:45.078Z,985.79
2022-08-26T11:37:57.731Z,985.83
2022-08-26T11:38:55.959Z,985.84
2022-08-26T11:39:57.131Z,985.89
2022-08-26T11:40:55.985Z,985.84
2022-08-26T11:41:55.817Z,985.75
2022-08-26T11:42:55.772Z,985.78
2022-08-26T11:43:55.778Z,985.82
2022-08-26T11:44:57.956Z,985.74
2022-08-26T11:45:55.899Z,985.72
2022-08-26T11:46:55.986Z,985.81
2022-08-26T11:47:55.719Z,985.79
2022-08-26T11:48:55.703Z,985.81
2022-08-26T11:49:55.711Z,985.80
2022-08-26T11:50:55.697Z,985.78
2022-08-26T11:51:55.838Z,985.80
2022-08-26T11:52:55.687Z,985.73
2022-08-26T11:53:55.677Z,985.71
2022-08-26T11:54:55.676Z,985.75
2022-08-26T11:55:55.730Z,985.78
2022-08-26T11:56:55.694Z,985.75
2022-08-26T11:57:55.599Z,985.70
2022-08-26T11:58:55.633Z,985.75
2022-08-26T11:59:55.584Z,985.68
2022-08-26T12:00:55.662Z,985.65
2022-08-26T12:01:55.609Z,985.70
2022-08-26T12:02:55.668Z,985.76
2022-08-26T12:05:11.110Z,985.80
2022-08-26T12:06:06.962Z,985.80
2022-08-26T12:07:05.625Z,985.73
2022-08-26T12:08:06.297Z,985.84
2022-08-26T12:09:06.035Z,985.78
2022-08-26T12:10:05.813Z,985.77
2022-08-26T12:11:05.580Z,985.75
2022-08-26T12:12:06.540Z,985.82
2022-08-26T12:13:05.632Z,985.76
2022-08-26T12:14:20.523Z,985.81
2022-08-26T12:15:06.642Z,985.76
2022-08-26T12:18:03.551Z,985.74
2022-08-26T12:18:47.280Z,985.72
2022-08-26T12:21:46.606Z,985.67
2022-08-26T12:22:47.940Z,985.71
2022-08-26T12:23:46.793Z,985.67
2022-08-26T12:24:46.562Z,985.67
2022-08-26T12:25:46.553Z,985.67
2022-08-26T12:26:46.511Z,985.66
2022-08-26T12:27:48.678Z,985.68
2022-08-26T12:28:49.357Z,985.66
2022-08-26T12:29:48.769Z,985.66
2022-08-26T12:30:46.447Z,985.66
2022-08-26T12:31:46.473Z,985.64
2022-08-26T12:32:50.996Z,985.61
2022-08-26T12:33:47.447Z,985.68
2022-08-26T12:34:46.572Z,985.70
2022-08-26T12:35:47.739Z,985.65
2022-08-26T12:36:46.922Z,985.63
2022-08-26T12:37:48.389Z,985.60
2022-08-26T12:38:47.785Z,985.58